sensor_id;sensor_type;location;lat;lon;timestamp;pressure;altitude;pressure_sealevel;temperature;humidity
28588;BME280;15787;49.662;10.162;2023-04-22T00:00:20;98547.03;;;10.56;95.33
28588;BME280;15787;49.662;10.162;2023-04-22T00:02:53;98551.25;;;10.48;96.05
28588;BME280;15787;49.662;10.162;2023-04-22T00:05:29;98556.00;;;10.06;96.61
28588;BME280;15787;49.662;10.162;2023-04-22T00:08:02;98565.03;;;9.33;100.00
28588;BME280;15787;49.662;10.162;2023-04-22T00:10:35;98548.25;;;9.97;100.00
28588;BME280;15787;49.662;10.162;2023-04-22T00:13:08;98539.09;;;9.97;100.00
28588;BME280;15787;49.662;10.162;2023-04-22T00:15:41;98539.59;;;9.63;100.00
28588;BME280;15787;49.662;10.162;2023-04-22T00:18:14;98532.09;;;9.44;100.00
28588;BME280;15787;49.662;10.162;2023-04-22T00:20:48;98526.94;;;9.75;100.00
28588;BME280;15787;49.662;10.162;2023-04-22T00:23:21;98531.72;;;9.74;100.00
28588;BME280;15787;49.662;10.162;2023-04-22T00:25:54;98531.16;;;9.50;100.00
28588;BME280;15787;49.662;10.162;2023-04-22T00:28:27;98535.75;;;9.73;100.00
28588;BME280;15787;49.662;10.162;2023-04-22T00:31:00;98529.03;;;9.71;100.00
28588;BME280;15787;49.662;10.162;2023-04-22T00:33:33;98525.13;;;9.68;100.00
28588;BME280;15787;49.662;10.162;2023-04-22T00:36:08;98528.13;;;9.74;100.00
28588;BME280;15787;49.662;10.162;2023-04-22T00:38:46;98522.06;;;9.63;100.00
28588;BME280;15787;49.662;10.162;2023-04-22T00:41:20;98522.16;;;9.59;100.00
28588;BME280;15787;49.662;10.162;2023-04-22T00:43:54;98520.09;;;9.47;100.00
28588;BME280;15787;49.662;10.162;2023-04-22T00:46:27;98520.59;;;9.42;100.00
28588;BME280;15787;49.662;10.162;2023-04-22T00:49:01;98525.22;;;9.65;100.00
28588;BME280;15787;49.662;10.162;2023-04-22T00:51:35;98522.56;;;9.74;100.00
28588;BME280;15787;49.662;10.162;2023-04-22T00:54:08;98526.47;;;9.92;100.00
28588;BME280;15787;49.662;10.162;2023-04-22T00:56:41;98535.03;;;9.85;100.00
28588;BME280;15787;49.662;10.162;2023-04-22T00:59:14;98519.56;;;9.97;100.00
28588;BME280;15787;49.662;10.162;2023-04-22T01:01:47;98521.56;;;10.12;100.00
28588;BME280;15787;49.662;10.162;2023-04-22T01:04:20;98535.00;;;10.01;100.00
28588;BME280;15787;49.662;10.162;2023-04-22T01:06:54;98525.13;;;10.13;99.90
28588;BME280;15787;49.662;10.162;2023-04-22T01:09:28;98542.81;;;9.62;99.60
28588;BME280;15787;49.662;10.162;2023-04-22T01:12:01;98527.88;;;9.84;100.00
28588;BME280;15787;49.662;10.162;2023-04-22T01:14:34;98524.41;;;9.80;100.00
28588;BME280;15787;49.662;10.162;2023-04-22T01:17:07;98524.84;;;9.79;100.00
28588;BME280;15787;49.662;10.162;2023-04-22T01:19:43;98527.16;;;9.96;100.00
28588;BME280;15787;49.662;10.162;2023-04-22T01:22:17;98527.59;;;9.95;100.00
28588;BME280;15787;49.662;10.162;2023-04-22T01:24:52;98531.16;;;9.95;100.00
28588;BME280;15787;49.662;10.162;2023-04-22T01:27:26;98542.94;;;9.87;100.00
28588;BME280;15787;49.662;10.162;2023-04-22T01:29:59;98531.91;;;10.12;99.83
28588;BME280;15787;49.662;10.162;2023-04-22T01:32:32;98542.88;;;9.74;100.00
28588;BME280;15787;49.662;10.162;2023-04-22T01:35:06;98536.94;;;9.88;100.00
28588;BME280;15787;49.662;10.162;2023-04-22T01:37:39;98533.56;;;10.09;100.00
28588;BME280;15787;49.662;10.162;2023-04-22T01:40:15;98535.59;;;10.09;99.90
28588;BME280;15787;49.662;10.162;2023-04-22T01:42:50;98537.59;;;10.08;99.85
28588;BME280;15787;49.662;10.162;2023-04-22T01:45:23;98536.88;;;10.21;100.00
28588;BME280;15787;49.662;10.162;2023-04-22T01:47:57;98539.22;;;10.22;99.58
28588;BME280;15787;49.662;10.162;2023-04-22T01:50:30;98543.97;;;10.09;99.82
28588;BME280;15787;49.662;10.162;2023-04-22T01:53:03;98543.09;;;10.12;99.49
28588;BME280;15787;49.662;10.162;2023-04-22T01:55:42;98547.97;;;10.08;100.00
28588;BME280;15787;49.662;10.162;2023-04-22T01:58:17;98552.56;;;10.14;100.00
28588;BME280;15787;49.662;10.162;2023-04-22T02:00:50;98545.97;;;10.08;100.00
28588;BME280;15787;49.662;10.162;2023-04-22T02:03:24;98551.88;;;9.49;100.00
28588;BME280;15787;49.662;10.162;2023-04-22T02:05:59;98558.00;;;9.89;100.00
28588;BME280;15787;49.662;10.162;2023-04-22T02:08:33;98553.56;;;9.92;100.00
28588;BME280;15787;49.662;10.162;2023-04-22T02:11:07;98560.84;;;10.02;100.00
28588;BME280;15787;49.662;10.162;2023-04-22T02:13:40;98551.81;;;10.14;99.66
28588;BME280;15787;49.662;10.162;2023-04-22T02:16:13;98558.06;;;9.73;99.41
28588;BME280;15787;49.662;10.162;2023-04-22T02:18:46;98567.88;;;9.78;98.01
28588;BME280;15787;49.662;10.162;2023-04-22T02:21:19;98559.13;;;9.92;98.38
28588;BME280;15787;49.662;10.162;2023-04-22T02:23:52;98561.78;;;9.67;98.98
28588;BME280;15787;49.662;10.162;2023-04-22T02:26:26;98557.44;;;9.66;99.35
28588;BME280;15787;49.662;10.162;2023-04-22T02:28:59;98568.44;;;9.40;100.00
28588;BME280;15787;49.662;10.162;2023-04-22T02:31:32;98548.44;;;9.74;100.00
28588;BME280;15787;49.662;10.162;2023-04-22T02:34:05;98562.41;;;9.42;100.00
28588;BME280;15787;49.662;10.162;2023-04-22T02:36:38;98548.97;;;9.05;100.00
28588;BME280;15787;49.662;10.162;2023-04-22T02:39:11;98557.34;;;9.37;100.00
28588;BME280;15787;49.662;10.162;2023-04-22T02:41:46;98553.34;;;9.22;100.00
28588;BME280;15787;49.662;10.162;2023-04-22T02:44:19;98547.19;;;9.30;100.00
28588;BME280;15787;49.662;10.162;2023-04-22T02:46:52;98549.03;;;9.01;100.00
28588;BME280;15787;49.662;10.162;2023-04-22T02:49:25;98547.41;;;9.04;100.00
28588;BME280;15787;49.662;10.162;2023-04-22T02:51:58;98535.59;;;9.32;100.00
28588;BME280;15787;49.662;10.162;2023-04-22T02:54:31;98539.84;;;9.04;100.00
28588;BME280;15787;49.662;10.162;2023-04-22T02:57:05;98540.34;;;8.99;100.00
28588;BME280;15787;49.662;10.162;2023-04-22T02:59:38;98535.50;;;9.35;100.00
28588;BME280;15787;49.662;10.162;2023-04-22T03:02:12;98538.06;;;8.94;100.00
28588;BME280;15787;49.662;10.162;2023-04-22T03:05:08;98533.59;;;9.32;100.00
28588;BME280;15787;49.662;10.162;2023-04-22T03:07:42;98549.88;;;9.18;100.00
28588;BME280;15787;49.662;10.162;2023-04-22T03:10:19;98541.59;;;9.46;100.00
28588;BME280;15787;49.662;10.162;2023-04-22T03:12:55;98542.63;;;9.52;100.00
28588;BME280;15787;49.662;10.162;2023-04-22T03:15:29;98542.47;;;9.60;100.00
28588;BME280;15787;49.662;10.162;2023-04-22T03:18:02;98546.72;;;9.64;100.00
28588;BME280;15787;49.662;10.162;2023-04-22T03:20:35;98548.03;;;9.43;100.00
28588;BME280;15787;49.662;10.162;2023-04-22T03:23:08;98542.13;;;9.58;100.00
28588;BME280;15787;49.662;10.162;2023-04-22T03:25:41;98543.06;;;9.51;100.00
28588;BME280;15787;49.662;10.162;2023-04-22T03:28:16;98546.22;;;9.53;100.00
28588;BME280;15787;49.662;10.162;2023-04-22T03:30:49;98546.56;;;9.39;100.00
28588;BME280;15787;49.662;10.162;2023-04-22T03:33:22;98553.34;;;9.22;100.00
28588;BME280;15787;49.662;10.162;2023-04-22T03:36:00;98549.69;;;9.41;100.00
28588;BME280;15787;49.662;10.162;2023-04-22T03:38:33;98547.94;;;9.47;100.00
28588;BME280;15787;49.662;10.162;2023-04-22T03:41:06;98546.72;;;9.64;100.00
28588;BME280;15787;49.662;10.162;2023-04-22T03:43:47;98538.13;;;9.42;100.00
28588;BME280;15787;49.662;10.162;2023-04-22T03:46:21;98542.72;;;9.65;100.00
28588;BME280;15787;49.662;10.162;2023-04-22T03:49:02;98534.69;;;9.67;100.00
28588;BME280;15787;49.662;10.162;2023-04-22T03:51:38;98530.44;;;9.79;100.00
28588;BME280;15787;49.662;10.162;2023-04-22T03:54:15;98534.44;;;9.29;100.00
28588;BME280;15787;49.662;10.162;2023-04-22T03:56:53;98542.03;;;9.29;100.00
28588;BME280;15787;49.662;10.162;2023-04-22T03:59:28;98540.63;;;9.37;100.00
28588;BME280;15787;49.662;10.162;2023-04-22T04:02:01;98542.19;;;9.70;100.00
28588;BME280;15787;49.662;10.162;2023-04-22T04:04:34;98539.94;;;9.33;100.00
28588;BME280;15787;49.662;10.162;2023-04-22T04:07:09;98540.19;;;9.06;100.00
28588;BME280;15787;49.662;10.162;2023-04-22T04:09:41;98544.81;;;9.29;100.00
28588;BME280;15787;49.662;10.162;2023-04-22T04:12:15;98537.16;;;9.17;100.00
28588;BME280;15787;49.662;10.162;2023-04-22T04:14:50;98541.75;;;9.39;100.00
28588;BME280;15787;49.662;10.162;2023-04-22T04:17:24;98539.16;;;9.48;100.00
28588;BME280;15787;49.662;10.162;2023-04-22T04:19:59;98539.44;;;9.38;100.00
28588;BME280;15787;49.662;10.162;2023-04-22T04:22:33;98545.41;;;9.69;100.00
28588;BME280;15787;49.662;10.162;2023-04-22T04:25:08;98542.88;;;9.74;100.00
28588;BME280;15787;49.662;10.162;2023-04-22T04:27:47;98553.50;;;9.79;100.00
28588;BME280;15787;49.662;10.162;2023-04-22T04:30:22;98548.81;;;9.44;100.00
28588;BME280;15787;49.662;10.162;2023-04-22T04:32:58;98542.63;;;9.36;100.00
28588;BME280;15787;49.662;10.162;2023-04-22T04:35:39;98537.81;;;9.69;100.00
28588;BME280;15787;49.662;10.162;2023-04-22T04:38:15;98546.53;;;9.71;100.00
28588;BME280;15787;49.662;10.162;2023-04-22T04:40:49;98545.41;;;9.69;100.00
28588;BME280;15787;49.662;10.162;2023-04-22T04:43:26;98549.56;;;9.77;100.00
28588;BME280;15787;49.662;10.162;2023-04-22T04:46:14;98547.63;;;9.90;100.00
28588;BME280;15787;49.662;10.162;2023-04-22T04:48:47;98560.72;;;9.77;100.00
28588;BME280;15787;49.662;10.162;2023-04-22T04:51:22;98547.31;;;9.88;100.00
28588;BME280;15787;49.662;10.162;2023-04-22T04:54:00;98546.28;;;10.10;100.00
28588;BME280;15787;49.662;10.162;2023-04-22T04:56:38;98541.28;;;10.34;100.00
28588;BME280;15787;49.662;10.162;2023-04-22T04:59:13;98557.03;;;10.41;100.00
28588;BME280;15787;49.662;10.162;2023-04-22T05:01:48;98554.81;;;10.48;99.60
28588;BME280;15787;49.662;10.162;2023-04-22T05:04:21;98559.53;;;10.51;99.64
28588;BME280;15787;49.662;10.162;2023-04-22T05:06:54;98563.78;;;10.56;99.34
28588;BME280;15787;49.662;10.162;2023-04-22T05:09:29;98554.22;;;10.69;99.42
28588;BME280;15787;49.662;10.162;2023-04-22T05:12:08;98558.38;;;10.36;99.96
28588;BME280;15787;49.662;10.162;2023-04-22T05:14:41;98558.09;;;10.59;99.73
28588;BME280;15787;49.662;10.162;2023-04-22T05:17:15;98560.72;;;10.79;99.73
28588;BME280;15787;49.662;10.162;2023-04-22T05:19:48;98566.09;;;11.11;98.38
28588;BME280;15787;49.662;10.162;2023-04-22T05:22:21;98567.13;;;11.17;98.27
28588;BME280;15787;49.662;10.162;2023-04-22T05:24:54;98569.03;;;11.33;98.52
28588;BME280;15787;49.662;10.162;2023-04-22T05:27:27;98568.34;;;11.41;98.87
28588;BME280;15787;49.662;10.162;2023-04-22T05:30:01;98567.22;;;11.64;98.39
28588;BME280;15787;49.662;10.162;2023-04-22T05:32:38;98573.91;;;11.67;97.09
28588;BME280;15787;49.662;10.162;2023-04-22T05:35:11;98573.47;;;11.56;95.80
28588;BME280;15787;49.662;10.162;2023-04-22T05:37:45;98572.66;;;11.68;93.93
28588;BME280;15787;49.662;10.162;2023-04-22T05:40:18;98576.25;;;11.81;92.75
28588;BME280;15787;49.662;10.162;2023-04-22T05:42:51;98569.16;;;12.01;92.12
28588;BME280;15787;49.662;10.162;2023-04-22T05:45:24;98572.81;;;12.11;91.94
28588;BME280;15787;49.662;10.162;2023-04-22T05:47:59;98579.03;;;12.28;90.77
28588;BME280;15787;49.662;10.162;2023-04-22T05:50:36;98575.34;;;12.52;90.96
28588;BME280;15787;49.662;10.162;2023-04-22T05:53:11;98576.06;;;12.65;89.42
28588;BME280;15787;49.662;10.162;2023-04-22T05:55:45;98573.50;;;12.80;89.09
28588;BME280;15787;49.662;10.162;2023-04-22T05:58:19;98572.06;;;12.97;88.17
28588;BME280;15787;49.662;10.162;2023-04-22T06:00:59;98573.94;;;13.22;88.47
28588;BME280;15787;49.662;10.162;2023-04-22T06:03:59;98564.53;;;13.47;88.34
28588;BME280;15787;49.662;10.162;2023-04-22T06:06:32;98571.25;;;13.49;86.73
28588;BME280;15787;49.662;10.162;2023-04-22T06:09:06;98565.38;;;13.74;85.13
28588;BME280;15787;49.662;10.162;2023-04-22T06:11:39;98565.53;;;13.71;82.04
28588;BME280;15787;49.662;10.162;2023-04-22T06:14:12;98566.97;;;13.84;80.77
28588;BME280;15787;49.662;10.162;2023-04-22T06:16:47;98565.59;;;13.98;78.91
28588;BME280;15787;49.662;10.162;2023-04-22T06:19:22;98560.28;;;14.09;76.98
28588;BME280;15787;49.662;10.162;2023-04-22T06:21:55;98554.38;;;14.16;75.74
28588;BME280;15787;49.662;10.162;2023-04-22T06:24:28;98560.44;;;14.24;75.18
28588;BME280;15787;49.662;10.162;2023-04-22T06:27:01;98553.47;;;14.37;74.77
28588;BME280;15787;49.662;10.162;2023-04-22T06:29:34;98547.22;;;14.42;75.01
28588;BME280;15787;49.662;10.162;2023-04-22T06:32:08;98553.00;;;14.48;74.50
28588;BME280;15787;49.662;10.162;2023-04-22T06:34:42;98550.50;;;14.59;74.22
28588;BME280;15787;49.662;10.162;2023-04-22T06:37:15;98552.03;;;14.60;73.96
28588;BME280;15787;49.662;10.162;2023-04-22T06:39:49;98553.59;;;14.70;73.75
28588;BME280;15787;49.662;10.162;2023-04-22T06:42:57;98546.56;;;14.84;73.38
28588;BME280;15787;49.662;10.162;2023-04-22T06:45:53;98547.63;;;14.86;73.25
28588;BME280;15787;49.662;10.162;2023-04-22T06:48:37;98557.31;;;14.94;73.20
28588;BME280;15787;49.662;10.162;2023-04-22T06:51:38;98549.63;;;15.04;73.52
28588;BME280;15787;49.662;10.162;2023-04-22T06:54:11;98546.66;;;15.07;72.98
28588;BME280;15787;49.662;10.162;2023-04-22T06:56:44;98549.72;;;15.28;73.05
28588;BME280;15787;49.662;10.162;2023-04-22T06:59:20;98551.44;;;15.25;73.23
28588;BME280;15787;49.662;10.162;2023-04-22T07:01:53;98552.75;;;15.39;74.57
28588;BME280;15787;49.662;10.162;2023-04-22T07:04:26;98550.09;;;15.77;75.89
28588;BME280;15787;49.662;10.162;2023-04-22T07:07:03;98551.84;;;15.74;74.00
28588;BME280;15787;49.662;10.162;2023-04-22T07:09:37;98548.13;;;16.16;73.77
28588;BME280;15787;49.662;10.162;2023-04-22T07:12:10;98544.63;;;16.44;73.28
28588;BME280;15787;49.662;10.162;2023-04-22T07:14:44;98552.16;;;16.91;73.33
28588;BME280;15787;49.662;10.162;2023-04-22T07:17:17;98548.50;;;16.85;71.53
28588;BME280;15787;49.662;10.162;2023-04-22T07:19:53;98542.13;;;17.20;71.17
28588;BME280;15787;49.662;10.162;2023-04-22T07:22:27;98549.44;;;16.97;71.06
28588;BME280;15787;49.662;10.162;2023-04-22T07:25:00;98550.56;;;17.49;69.94
28588;BME280;15787;49.662;10.162;2023-04-22T07:27:33;98551.50;;;16.96;70.24
28588;BME280;15787;49.662;10.162;2023-04-22T07:30:09;98547.50;;;17.82;70.13
28588;BME280;15787;49.662;10.162;2023-04-22T07:32:43;98540.28;;;17.31;70.16
28588;BME280;15787;49.662;10.162;2023-04-22T07:35:19;98545.47;;;17.67;69.88
28588;BME280;15787;49.662;10.162;2023-04-22T07:37:53;98543.03;;;17.75;68.45
28588;BME280;15787;49.662;10.162;2023-04-22T07:40:26;98544.47;;;17.36;67.72
28588;BME280;15787;49.662;10.162;2023-04-22T07:42:59;98545.25;;;17.36;68.51
28588;BME280;15787;49.662;10.162;2023-04-22T07:45:32;98548.56;;;17.84;69.79
28588;BME280;15787;49.662;10.162;2023-04-22T07:48:05;98548.56;;;18.04;69.67
28588;BME280;15787;49.662;10.162;2023-04-22T07:50:38;98541.22;;;18.12;67.70
28588;BME280;15787;49.662;10.162;2023-04-22T07:53:15;98545.69;;;17.64;68.37
28588;BME280;15787;49.662;10.162;2023-04-22T07:55:48;98542.03;;;17.78;66.70
28588;BME280;15787;49.662;10.162;2023-04-22T07:58:21;98544.66;;;17.82;67.94
28588;BME280;15787;49.662;10.162;2023-04-22T08:00:54;98536.66;;;17.60;68.46
28588;BME280;15787;49.662;10.162;2023-04-22T08:03:27;98541.94;;;17.38;68.66
28588;BME280;15787;49.662;10.162;2023-04-22T08:06:00;98538.03;;;17.85;68.80
28588;BME280;15787;49.662;10.162;2023-04-22T08:08:35;98539.81;;;17.82;68.36
28588;BME280;15787;49.662;10.162;2023-04-22T08:11:08;98538.94;;;17.76;68.14
28588;BME280;15787;49.662;10.162;2023-04-22T08:13:41;98537.00;;;18.02;68.31
28588;BME280;15787;49.662;10.162;2023-04-22T08:16:14;98533.50;;;18.33;67.51
28588;BME280;15787;49.662;10.162;2023-04-22T08:18:47;98538.88;;;18.51;67.37
28588;BME280;15787;49.662;10.162;2023-04-22T08:21:19;98536.19;;;18.62;66.09
28588;BME280;15787;49.662;10.162;2023-04-22T08:23:54;98536.06;;;18.77;65.46
28588;BME280;15787;49.662;10.162;2023-04-22T08:26:27;98543.09;;;18.41;63.12
28588;BME280;15787;49.662;10.162;2023-04-22T08:29:00;98532.69;;;18.99;63.54
28588;BME280;15787;49.662;10.162;2023-04-22T08:31:33;98533.03;;;19.06;61.98
28588;BME280;15787;49.662;10.162;2023-04-22T08:34:06;98532.44;;;18.97;62.47
28588;BME280;15787;49.662;10.162;2023-04-22T08:36:39;98532.25;;;19.06;61.19
28588;BME280;15787;49.662;10.162;2023-04-22T08:39:13;98532.75;;;19.35;60.63
28588;BME280;15787;49.662;10.162;2023-04-22T08:41:47;98532.03;;;19.09;59.45
28588;BME280;15787;49.662;10.162;2023-04-22T08:44:21;98532.19;;;19.00;60.46
28588;BME280;15787;49.662;10.162;2023-04-22T08:46:54;98518.84;;;19.32;61.01
28588;BME280;15787;49.662;10.162;2023-04-22T08:49:29;98520.63;;;19.35;61.93
28588;BME280;15787;49.662;10.162;2023-04-22T08:52:01;98516.09;;;19.43;61.74
28588;BME280;15787;49.662;10.162;2023-04-22T08:54:36;98513.63;;;20.04;61.51
28588;BME280;15787;49.662;10.162;2023-04-22T08:57:10;98524.47;;;19.63;58.76
28588;BME280;15787;49.662;10.162;2023-04-22T08:59:43;98523.06;;;20.32;62.38
28588;BME280;15787;49.662;10.162;2023-04-22T09:02:19;98513.28;;;20.33;59.63
28588;BME280;15787;49.662;10.162;2023-04-22T09:04:52;98514.38;;;20.63;58.57
28588;BME280;15787;49.662;10.162;2023-04-22T09:07:26;98519.81;;;20.78;59.33
28588;BME280;15787;49.662;10.162;2023-04-22T09:10:01;98517.38;;;20.32;58.50
28588;BME280;15787;49.662;10.162;2023-04-22T09:15:11;98511.09;;;21.20;56.81
28588;BME280;15787;49.662;10.162;2023-04-22T09:17:44;98509.03;;;21.49;58.19
28588;BME280;15787;49.662;10.162;2023-04-22T09:20:17;98513.59;;;20.63;58.01
28588;BME280;15787;49.662;10.162;2023-04-22T09:22:51;98506.50;;;21.17;56.21
28588;BME280;15787;49.662;10.162;2023-04-22T09:25:26;98514.72;;;21.21;56.32
28588;BME280;15787;49.662;10.162;2023-04-22T09:27:59;98504.66;;;21.31;56.46
28588;BME280;15787;49.662;10.162;2023-04-22T09:30:34;98517.41;;;20.38;57.00
28588;BME280;15787;49.662;10.162;2023-04-22T09:33:08;98500.28;;;21.19;56.46
28588;BME280;15787;49.662;10.162;2023-04-22T09:35:44;98504.34;;;20.90;56.12
28588;BME280;15787;49.662;10.162;2023-04-22T09:38:19;98495.00;;;22.00;56.26
28588;BME280;15787;49.662;10.162;2023-04-22T09:40:53;98503.31;;;21.87;55.11
28588;BME280;15787;49.662;10.162;2023-04-22T09:43:31;98506.44;;;20.95;56.77
28588;BME280;15787;49.662;10.162;2023-04-22T09:46:04;98505.19;;;21.29;55.89
28588;BME280;15787;49.662;10.162;2023-04-22T09:48:41;98505.44;;;21.26;56.73
28588;BME280;15787;49.662;10.162;2023-04-22T09:51:14;98506.97;;;21.10;56.01
28588;BME280;15787;49.662;10.162;2023-04-22T09:54:06;98499.72;;;20.76;57.79
28588;BME280;15787;49.662;10.162;2023-04-22T09:56:44;98495.31;;;20.80;57.64
28588;BME280;15787;49.662;10.162;2023-04-22T09:59:20;98494.03;;;21.54;57.34
28588;BME280;15787;49.662;10.162;2023-04-22T10:01:57;98496.81;;;22.03;57.17
28588;BME280;15787;49.662;10.162;2023-04-22T10:04:31;98498.63;;;22.01;55.46
28588;BME280;15787;49.662;10.162;2023-04-22T10:07:05;98496.09;;;21.59;55.49
28588;BME280;15787;49.662;10.162;2023-04-22T10:09:38;98492.19;;;21.78;56.22
28588;BME280;15787;49.662;10.162;2023-04-22T10:12:13;98492.75;;;21.49;55.54
28588;BME280;15787;49.662;10.162;2023-04-22T10:14:51;98481.66;;;21.57;56.45
28588;BME280;15787;49.662;10.162;2023-04-22T10:17:24;98489.63;;;21.86;56.10
28588;BME280;15787;49.662;10.162;2023-04-22T10:19:59;98495.25;;;22.02;56.41
28588;BME280;15787;49.662;10.162;2023-04-22T10:22:34;98488.19;;;22.20;56.33
28588;BME280;15787;49.662;10.162;2023-04-22T10:25:11;98483.97;;;22.84;54.63
28588;BME280;15787;49.662;10.162;2023-04-22T10:27:51;98486.06;;;22.37;55.02
28588;BME280;15787;49.662;10.162;2023-04-22T10:30:28;98486.84;;;23.14;55.39
28588;BME280;15787;49.662;10.162;2023-04-22T10:33:39;98480.88;;;22.82;53.69
28588;BME280;15787;49.662;10.162;2023-04-22T10:36:15;98478.38;;;22.16;54.40
28588;BME280;15787;49.662;10.162;2023-04-22T10:39:14;98476.63;;;22.64;54.60
28588;BME280;15787;49.662;10.162;2023-04-22T10:41:56;98477.63;;;22.15;54.55
28588;BME280;15787;49.662;10.162;2023-04-22T10:44:47;98477.97;;;22.52;55.63
28588;BME280;15787;49.662;10.162;2023-04-22T10:47:28;98468.56;;;22.69;54.96
28588;BME280;15787;49.662;10.162;2023-04-22T10:50:21;98475.25;;;22.71;54.87
28588;BME280;15787;49.662;10.162;2023-04-22T10:52:55;98462.72;;;23.50;53.90
28588;BME280;15787;49.662;10.162;2023-04-22T10:55:48;98449.00;;;23.73;53.65
28588;BME280;15787;49.662;10.162;2023-04-22T10:58:22;98458.59;;;22.86;52.66
28588;BME280;15787;49.662;10.162;2023-04-22T11:00:57;98454.94;;;22.91;51.87
28588;BME280;15787;49.662;10.162;2023-04-22T11:03:33;98454.69;;;22.89;50.45
28588;BME280;15787;49.662;10.162;2023-04-22T11:06:13;98448.94;;;22.59;50.86
28588;BME280;15787;49.662;10.162;2023-04-22T11:08:48;98456.59;;;23.41;50.13
28588;BME280;15787;49.662;10.162;2023-04-22T11:11:22;98449.06;;;23.13;49.47
28588;BME280;15787;49.662;10.162;2023-04-22T11:13:56;98444.00;;;23.01;50.19
28588;BME280;15787;49.662;10.162;2023-04-22T11:16:31;98449.94;;;22.68;50.34
28588;BME280;15787;49.662;10.162;2023-04-22T11:19:04;98454.22;;;22.44;50.61
28588;BME280;15787;49.662;10.162;2023-04-22T11:21:37;98447.16;;;22.92;51.47
28588;BME280;15787;49.662;10.162;2023-04-22T11:24:11;98442.28;;;22.87;51.66
28588;BME280;15787;49.662;10.162;2023-04-22T11:26:43;98449.91;;;22.27;50.41
28588;BME280;15787;49.662;10.162;2023-04-22T11:29:17;98452.53;;;22.65;50.51
28588;BME280;15787;49.662;10.162;2023-04-22T11:31:51;98446.78;;;22.25;49.26
28588;BME280;15787;49.662;10.162;2023-04-22T11:34:24;98451.72;;;22.71;49.39
28588;BME280;15787;49.662;10.162;2023-04-22T11:36:57;98441.50;;;22.86;49.52
28588;BME280;15787;49.662;10.162;2023-04-22T11:39:34;98442.88;;;23.39;49.76
28588;BME280;15787;49.662;10.162;2023-04-22T11:42:21;98437.84;;;23.51;49.36
28588;BME280;15787;49.662;10.162;2023-04-22T11:44:54;98436.16;;;23.85;48.84
28588;BME280;15787;49.662;10.162;2023-04-22T11:47:29;98429.81;;;23.49;48.25
28588;BME280;15787;49.662;10.162;2023-04-22T11:50:04;98431.78;;;23.84;47.75
28588;BME280;15787;49.662;10.162;2023-04-22T11:52:42;98438.91;;;23.48;46.41
28588;BME280;15787;49.662;10.162;2023-04-22T11:55:20;98426.28;;;23.43;47.06
28588;BME280;15787;49.662;10.162;2023-04-22T11:57:54;98425.66;;;23.26;45.21
28588;BME280;15787;49.662;10.162;2023-04-22T12:00:31;98416.19;;;22.83;44.06
28588;BME280;15787;49.662;10.162;2023-04-22T12:03:07;98417.84;;;23.26;46.30
28588;BME280;15787;49.662;10.162;2023-04-22T12:05:49;98406.34;;;23.43;46.40
28588;BME280;15787;49.662;10.162;2023-04-22T12:08:24;98403.88;;;23.96;45.93
28588;BME280;15787;49.662;10.162;2023-04-22T12:10:59;98403.38;;;23.97;44.31
28588;BME280;15787;49.662;10.162;2023-04-22T12:13:39;98404.19;;;23.73;43.76
28588;BME280;15787;49.662;10.162;2023-04-22T12:16:15;98402.94;;;24.12;43.82
28588;BME280;15787;49.662;10.162;2023-04-22T12:18:51;98400.97;;;24.57;44.63
28588;BME280;15787;49.662;10.162;2023-04-22T12:21:25;98398.25;;;24.83;43.78
28588;BME280;15787;49.662;10.162;2023-04-22T12:24:00;98399.75;;;24.52;43.54
28588;BME280;15787;49.662;10.162;2023-04-22T12:26:38;98397.91;;;23.56;44.15
28588;BME280;15787;49.662;10.162;2023-04-22T12:29:11;98394.72;;;23.36;44.77
28588;BME280;15787;49.662;10.162;2023-04-22T12:31:44;98395.94;;;23.88;44.99
28588;BME280;15787;49.662;10.162;2023-04-22T12:34:18;98388.63;;;23.93;46.28
28588;BME280;15787;49.662;10.162;2023-04-22T12:36:51;98398.75;;;24.50;43.03
28588;BME280;15787;49.662;10.162;2023-04-22T12:39:25;98386.97;;;24.72;42.62
28588;BME280;15787;49.662;10.162;2023-04-22T12:41:58;98387.50;;;24.39;42.92
28588;BME280;15787;49.662;10.162;2023-04-22T12:44:31;98386.06;;;24.64;43.69
28588;BME280;15787;49.662;10.162;2023-04-22T12:47:04;98389.56;;;24.57;41.46
28588;BME280;15787;49.662;10.162;2023-04-22T12:49:38;98382.78;;;24.79;41.51
28588;BME280;15787;49.662;10.162;2023-04-22T12:52:17;98379.00;;;25.16;41.35
28588;BME280;15787;49.662;10.162;2023-04-22T12:54:50;98384.59;;;24.76;41.59
28588;BME280;15787;49.662;10.162;2023-04-22T12:57:24;98373.66;;;24.30;41.80
28588;BME280;15787;49.662;10.162;2023-04-22T12:59:57;98369.78;;;25.23;42.72
28588;BME280;15787;49.662;10.162;2023-04-22T13:02:30;98364.63;;;24.76;41.37
28588;BME280;15787;49.662;10.162;2023-04-22T13:05:05;98366.50;;;25.45;43.05
28588;BME280;15787;49.662;10.162;2023-04-22T13:07:39;98371.47;;;24.86;42.04
28588;BME280;15787;49.662;10.162;2023-04-22T13:10:14;98367.41;;;25.79;42.02
28588;BME280;15787;49.662;10.162;2023-04-22T13:12:47;98361.34;;;25.69;41.28
28588;BME280;15787;49.662;10.162;2023-04-22T13:15:20;98357.06;;;25.37;40.46
28588;BME280;15787;49.662;10.162;2023-04-22T13:17:53;98361.16;;;25.67;40.49
28588;BME280;15787;49.662;10.162;2023-04-22T13:20:27;98358.25;;;25.41;40.15
28588;BME280;15787;49.662;10.162;2023-04-22T13:23:00;98365.81;;;25.12;40.73
28588;BME280;15787;49.662;10.162;2023-04-22T13:25:35;98359.56;;;25.14;40.77
28588;BME280;15787;49.662;10.162;2023-04-22T13:28:08;98360.00;;;24.73;40.45
28588;BME280;15787;49.662;10.162;2023-04-22T13:30:42;98349.13;;;25.17;41.99
28588;BME280;15787;49.662;10.162;2023-04-22T13:33:15;98348.22;;;24.95;39.63